Time;durP1;ratioP1;P1;durP2;ratioP2;P2;SDS_P1;SDS_P2;PMS_P1;PMS_P2;Temp;Humidity;BMP_temperature;BMP_pressure;BME280_temperature;BME280_humidity;BME280_pressure;Samples;Min_cycle;Max_cycle;Signal;HPM_P1;HPM_P2
2022/04/22 00:00:09;;;;;;;6.80;6.23;;;7.60;99.90;;;;;;4946337;28;20565;-90
2022/04/22 00:02:36;;;;;;;6.60;6.00;;;7.60;99.90;;;;;;4954840;28;20467;-90
2022/04/22 00:05:02;;;;;;;7.60;6.60;;;7.50;99.90;;;;;;4976500;28;20432;-88
2022/04/22 00:07:28;;;;;;;7.00;6.17;;;7.40;99.90;;;;;;4951151;28;20884;-88
2022/04/22 00:09:57;;;;;;;6.70;6.10;;;7.40;99.90;;;;;;4951399;28;20448;-88
2022/04/22 00:12:23;;;;;;;6.20;5.60;;;7.50;99.90;;;;;;4974096;28;20932;-88
2022/04/22 00:14:48;;;;;;;6.67;6.00;;;7.20;99.90;;;;;;4973510;28;21903;-88
2022/04/22 00:17:14;;;;;;;5.83;5.33;;;7.50;99.90;;;;;;4968827;28;20250;-88
2022/04/22 00:19:40;;;;;;;7.00;6.30;;;7.50;99.90;;;;;;4950903;28;20444;-88
2022/04/22 00:22:05;;;;;;;6.60;5.90;;;7.50;99.90;;;;;;4953875;28;21210;-88
2022/04/22 00:24:31;;;;;;;6.20;5.70;;;7.50;99.90;;;;;;4945917;28;20204;-89
2022/04/22 00:26:59;;;;;;;6.70;6.10;;;7.60;99.90;;;;;;4961498;28;20186;-88
2022/04/22 00:29:24;;;;;;;6.87;6.17;;;7.70;99.90;;;;;;4951620;28;20738;-88
2022/04/22 00:31:50;;;;;;;6.07;5.53;;;7.70;99.90;;;;;;4944553;28;20436;-87
2022/04/22 00:34:16;;;;;;;6.70;6.00;;;7.70;99.90;;;;;;4972741;28;20221;-90
2022/04/22 00:36:41;;;;;;;6.27;5.77;;;7.70;99.90;;;;;;4953023;28;20189;-89
2022/04/22 00:39:07;;;;;;;6.97;6.30;;;7.60;99.90;;;;;;4945035;28;20566;-89
2022/04/22 00:41:32;;;;;;;8.20;6.20;;;7.50;99.90;;;;;;4957932;28;20274;-89
2022/04/22 00:44:01;;;;;;;6.93;6.13;;;7.60;99.90;;;;;;4989059;28;20200;-89
2022/04/22 00:46:26;;;;;;;5.80;5.20;;;7.60;99.90;;;;;;4952913;28;20204;-89
2022/04/22 00:48:52;;;;;;;6.27;5.33;;;7.50;99.90;;;;;;4953333;28;20451;-88
2022/04/22 00:51:21;;;;;;;6.43;5.90;;;7.70;99.90;;;;;;4950339;28;20197;-88
2022/04/22 00:53:48;;;;;;;7.13;6.43;;;7.60;99.90;;;;;;4950932;28;20225;-89
2022/04/22 00:56:13;;;;;;;6.43;5.80;;;7.60;99.90;;;;;;4956341;28;20806;-89
2022/04/22 00:58:41;;;;;;;6.00;5.40;;;7.70;99.90;;;;;;4972948;28;20448;-89
2022/04/22 01:01:08;;;;;;;6.00;5.50;;;7.70;99.90;;;;;;4949723;28;20189;-88
2022/04/22 01:03:33;;;;;;;7.10;6.10;;;7.60;99.90;;;;;;4975215;28;20578;-89
2022/04/22 01:11:32;;;;;;;7.00;6.40;;;7.50;99.90;;;;;;4976298;28;20911;-89
2022/04/22 01:14:01;;;;;;;5.57;5.07;;;7.40;99.90;;;;;;4962086;28;20565;-88
2022/04/22 01:16:28;;;;;;;6.57;5.97;;;7.30;99.90;;;;;;4967755;28;20527;-89
2022/04/22 01:19:11;;;;;;;6.77;6.17;;;7.20;99.90;;;;;;4971852;28;20444;-89
2022/04/22 01:21:37;;;;;;;9.13;6.57;;;7.20;99.90;;;;;;4959395;28;20443;-88
2022/04/22 01:24:02;;;;;;;7.03;6.43;;;7.10;99.90;;;;;;4962256;28;20230;-89
2022/04/22 01:26:30;;;;;;;7.03;6.33;;;7.10;99.90;;;;;;4967646;28;20255;-88
2022/04/22 01:28:56;;;;;;;6.80;5.80;;;7.10;99.90;;;;;;4977568;28;20189;-88
2022/04/22 01:31:22;;;;;;;6.80;6.20;;;7.10;99.90;;;;;;4959916;28;20852;-87
2022/04/22 01:33:48;;;;;;;6.00;5.50;;;7.10;99.90;;;;;;4972781;28;21767;-87
2022/04/22 01:36:13;;;;;;;6.23;5.73;;;7.10;99.90;;;;;;4950682;28;20925;-88
2022/04/22 01:38:39;;;;;;;7.00;6.40;;;7.10;99.90;;;;;;4945908;28;21776;-88
2022/04/22 01:41:04;;;;;;;7.10;6.50;;;6.80;99.90;;;;;;4948840;28;20263;-88
2022/04/22 01:43:30;;;;;;;7.20;6.50;;;7.00;99.90;;;;;;4949781;28;20216;-88
2022/04/22 01:45:56;;;;;;;7.27;6.57;;;6.90;99.90;;;;;;4969681;28;20188;-87
2022/04/22 01:48:21;;;;;;;6.43;5.83;;;6.90;99.90;;;;;;4951422;28;20654;-87
2022/04/22 01:50:47;;;;;;;7.00;6.30;;;6.70;99.90;;;;;;4975228;28;20250;-88
2022/04/22 01:53:12;;;;;;;6.90;6.30;;;6.70;99.90;;;;;;4955378;28;20225;-87
2022/04/22 01:55:38;;;;;;;7.10;6.40;;;6.40;99.90;;;;;;4953246;28;20204;-87
2022/04/22 01:58:04;;;;;;;7.33;6.63;;;6.20;99.90;;;;;;4954418;28;21486;-88
2022/04/22 02:00:29;;;;;;;9.47;6.53;;;6.20;99.90;;;;;;4975263;28;20184;-88
2022/04/22 02:02:55;;;;;;;7.17;6.47;;;6.20;99.90;;;;;;4958946;28;20204;-88
2022/04/22 02:05:20;;;;;;;8.23;7.43;;;6.30;99.90;;;;;;4950854;28;20187;-87
2022/04/22 02:07:46;;;;;;;8.03;7.23;;;6.40;99.90;;;;;;4952894;28;20194;-86
2022/04/22 02:10:12;;;;;;;7.83;7.07;;;6.40;99.90;;;;;;4948197;28;20437;-87
2022/04/22 02:12:40;;;;;;;7.73;6.90;;;6.40;99.90;;;;;;4949976;28;20842;-87
2022/04/22 02:15:06;;;;;;;8.63;7.30;;;6.30;99.90;;;;;;4954382;28;20331;-88
2022/04/22 02:17:31;;;;;;;7.80;6.77;;;6.40;99.90;;;;;;4952024;28;20477;-88
2022/04/22 02:19:57;;;;;;;7.17;6.47;;;6.40;99.90;;;;;;4963598;28;21303;-88
2022/04/22 02:22:23;;;;;;;7.30;6.60;;;6.30;99.90;;;;;;4944110;28;20184;-88
2022/04/22 02:24:49;;;;;;;7.73;6.93;;;6.40;99.90;;;;;;4946463;28;20219;-87
2022/04/22 02:30:01;;;;;;;8.10;7.03;;;6.50;99.90;;;;;;4974220;28;21074;-88
2022/04/22 02:32:26;;;;;;;8.00;7.10;;;6.50;99.90;;;;;;4968059;28;20443;-88
2022/04/22 02:34:53;;;;;;;8.60;7.30;;;6.50;99.90;;;;;;4959015;28;23705;-88
2022/04/22 02:37:18;;;;;;;8.20;7.40;;;6.40;99.90;;;;;;4969107;28;20652;-88
2022/04/22 02:39:44;;;;;;;8.13;7.33;;;6.50;99.90;;;;;;4951326;28;20467;-88
2022/04/22 02:47:40;;;;;;;8.13;7.33;;;6.50;99.90;;;;;;4963649;28;21603;-88
2022/04/22 02:50:06;;;;;;;6.83;6.23;;;6.50;99.90;;;;;;4961772;28;20816;-88
2022/04/22 02:52:32;;;;;;;8.13;7.27;;;6.40;99.90;;;;;;4960644;28;20249;-89
2022/04/22 02:55:00;;;;;;;8.60;6.90;;;6.50;99.90;;;;;;4951992;28;20448;-88
2022/04/22 02:57:26;;;;;;;8.23;7.40;;;6.30;99.90;;;;;;4962518;28;20298;-89
2022/04/22 02:59:51;;;;;;;8.20;7.20;;;6.40;99.90;;;;;;4959837;28;20784;-89
2022/04/22 03:02:17;;;;;;;9.57;7.87;;;6.40;99.90;;;;;;4963828;28;20624;-88
2022/04/22 03:04:45;;;;;;;8.50;7.27;;;6.40;99.90;;;;;;4980784;28;20192;-88
2022/04/22 03:07:11;;;;;;;8.10;7.30;;;6.30;99.90;;;;;;4951300;28;20265;-87
2022/04/22 03:09:36;;;;;;;7.80;7.03;;;6.20;99.90;;;;;;4964665;28;20947;-87
2022/04/22 03:12:04;;;;;;;7.80;7.00;;;6.00;99.90;;;;;;4953054;28;20874;-87
2022/04/22 03:14:30;;;;;;;8.20;7.40;;;6.00;99.90;;;;;;4958120;28;20226;-87
2022/04/22 03:16:55;;;;;;;8.90;7.77;;;5.80;99.90;;;;;;4954007;28;20513;-87
2022/04/22 03:19:21;;;;;;;8.20;7.23;;;5.70;99.90;;;;;;4941471;28;20643;-87
2022/04/22 03:21:46;;;;;;;9.13;7.87;;;5.50;99.90;;;;;;4949215;28;20859;-87
2022/04/22 03:24:12;;;;;;;12.07;9.10;;;5.50;99.90;;;;;;4957493;28;20193;-87
2022/04/22 03:26:38;;;;;;;9.10;8.13;;;5.40;99.90;;;;;;4969280;28;20188;-88
2022/04/22 03:29:03;;;;;;;11.90;9.53;;;5.40;99.90;;;;;;4948899;28;20197;-87
2022/04/22 03:31:29;;;;;;;11.47;9.73;;;5.40;99.90;;;;;;4956912;28;20958;-87
2022/04/22 03:33:54;;;;;;;12.67;10.10;;;5.30;99.90;;;;;;4961182;28;20234;-87
2022/04/22 03:36:20;;;;;;;11.23;9.27;;;5.40;99.90;;;;;;4973055;28;20185;-87
2022/04/22 03:38:45;;;;;;;10.50;9.13;;;5.30;99.90;;;;;;4976661;28;20204;-88
2022/04/22 03:41:11;;;;;;;12.63;9.93;;;5.30;99.90;;;;;;4966944;28;21112;-87
2022/04/22 03:43:37;;;;;;;11.80;10.00;;;5.30;99.90;;;;;;4954241;28;20193;-87
2022/04/22 03:46:06;;;;;;;10.23;9.23;;;5.40;99.90;;;;;;4971222;28;20674;-89
2022/04/22 03:48:31;;;;;;;12.77;11.43;;;5.40;99.90;;;;;;4959342;28;20478;-89
2022/04/22 03:50:57;;;;;;;11.43;9.40;;;5.70;99.90;;;;;;4954618;28;20436;-86
2022/04/22 03:53:22;;;;;;;14.70;11.40;;;5.40;99.90;;;;;;4946972;28;20227;-88
2022/04/22 03:55:48;;;;;;;14.07;10.23;;;5.40;99.90;;;;;;4949515;28;20224;-89
2022/04/22 03:58:28;;;;;;;12.20;10.57;;;5.40;99.90;;;;;;4965625;28;20625;-88
2022/04/22 04:00:54;;;;;;;12.87;10.47;;;5.20;99.90;;;;;;4955148;28;20179;-87
2022/04/22 04:03:22;;;;;;;17.50;11.67;;;5.30;99.90;;;;;;4961091;28;20502;-89
2022/04/22 04:05:51;;;;;;;13.80;11.77;;;5.30;99.90;;;;;;4967204;28;20235;-87
2022/04/22 04:08:19;;;;;;;16.97;13.57;;;5.20;99.90;;;;;;4974682;28;20917;-88
2022/04/22 04:16:14;;;;;;;15.80;11.80;;;5.00;99.90;;;;;;4974255;28;20513;-88
2022/04/22 04:18:40;;;;;;;15.10;11.40;;;5.10;99.90;;;;;;4971697;28;22008;-88
2022/04/22 04:23:57;;;;;;;16.27;12.90;;;5.20;99.90;;;;;;4974184;28;20455;-88
2022/04/22 04:26:24;;;;;;;16.90;12.87;;;5.20;99.90;;;;;;4965880;28;20445;-88
2022/04/22 04:28:51;;;;;;;14.23;12.27;;;5.20;99.90;;;;;;4981048;28;20563;-89
2022/04/22 04:31:18;;;;;;;14.40;12.30;;;5.20;99.90;;;;;;4976294;28;20520;-90
2022/04/22 04:33:45;;;;;;;15.80;13.33;;;5.20;99.90;;;;;;4965517;28;20518;-89
2022/04/22 04:36:11;;;;;;;19.53;15.20;;;5.20;99.90;;;;;;4973891;28;20440;-88
2022/04/22 04:38:38;;;;;;;18.97;14.97;;;5.30;99.90;;;;;;4950763;28;20925;-88
2022/04/22 04:41:06;;;;;;;18.77;14.63;;;5.40;99.90;;;;;;4960403;28;20940;-89
2022/04/22 04:43:32;;;;;;;19.13;14.70;;;5.40;99.90;;;;;;4952853;28;20461;-89
2022/04/22 04:45:58;;;;;;;19.47;14.13;;;5.50;99.90;;;;;;4970248;28;20829;-85
2022/04/22 04:48:24;;;;;;;17.10;14.00;;;5.50;99.90;;;;;;4964567;28;21111;-88
2022/04/22 04:50:54;;;;;;;16.23;13.60;;;5.50;99.90;;;;;;4953239;28;20189;-87
2022/04/22 04:53:21;;;;;;;19.03;14.13;;;5.40;99.90;;;;;;4964238;28;20756;-87
2022/04/22 04:55:50;;;;;;;18.63;15.60;;;5.40;99.90;;;;;;4971766;28;20443;-88
2022/04/22 04:58:17;;;;;;;20.67;14.73;;;5.50;99.90;;;;;;4983161;28;20444;-85
2022/04/22 05:01:06;;;;;;;18.40;14.67;;;5.60;99.90;;;;;;4996523;28;20570;-87
2022/04/22 05:03:38;;;;;;;20.87;15.20;;;5.70;99.90;;;;;;5005847;28;20465;-86
2022/04/22 05:06:04;;;;;;;19.53;15.00;;;5.70;99.90;;;;;;4967996;28;20447;-87
2022/04/22 05:08:32;;;;;;;21.43;16.70;;;5.80;99.90;;;;;;4962573;28;20444;-89
2022/04/22 05:10:58;;;;;;;21.33;16.73;;;5.80;99.90;;;;;;4960667;28;20191;-87
2022/04/22 05:13:29;;;;;;;22.83;17.37;;;5.80;99.90;;;;;;4967670;28;20480;-90
2022/04/22 05:16:02;;;;;;;22.53;18.00;;;5.90;99.90;;;;;;4970210;28;20432;-89
2022/04/22 05:18:31;;;;;;;22.63;17.00;;;6.00;99.90;;;;;;4969857;28;21025;-88
2022/04/22 05:20:56;;;;;;;22.30;17.93;;;6.10;99.90;;;;;;4977815;28;20708;-89
2022/04/22 05:23:22;;;;;;;22.70;17.80;;;6.20;99.90;;;;;;4965593;28;20197;-88
2022/04/22 05:25:48;;;;;;;25.80;17.30;;;6.20;99.90;;;;;;4980423;28;20279;-89
2022/04/22 05:28:17;;;;;;;28.40;19.00;;;6.40;99.90;;;;;;4974018;28;20265;-91
2022/04/22 05:33:34;;;;;;;23.60;18.03;;;6.60;99.90;;;;;;4991000;28;21170;-88
2022/04/22 05:36:00;;;;;;;24.13;19.20;;;6.80;99.90;;;;;;4969430;28;20435;-90
2022/04/22 05:38:26;;;;;;;24.67;18.90;;;6.90;99.90;;;;;;4976901;28;20462;-90
2022/04/22 05:40:51;;;;;;;23.40;17.83;;;7.00;99.90;;;;;;4985063;28;20238;-90
2022/04/22 05:43:17;;;;;;;25.20;18.63;;;7.10;99.90;;;;;;4961737;28;20246;-90
2022/04/22 05:45:43;;;;;;;26.00;20.03;;;7.10;99.90;;;;;;4963839;28;20887;-89
2022/04/22 05:48:09;;;;;;;23.27;18.67;;;7.20;99.90;;;;;;4969614;28;20201;-92
2022/04/22 05:50:35;;;;;;;23.47;18.40;;;7.30;99.90;;;;;;4954523;28;20485;-87
2022/04/22 05:53:00;;;;;;;23.27;19.40;;;7.40;99.90;;;;;;4991491;28;20307;-91
2022/04/22 05:55:30;;;;;;;26.67;21.30;;;7.20;99.90;;;;;;4965826;28;20538;-87
2022/04/22 05:57:57;;;;;;;25.27;18.47;;;7.40;99.90;;;;;;4979563;28;20267;-92
2022/04/22 06:00:28;;;;;;;25.30;19.27;;;7.60;99.90;;;;;;4970275;28;20620;-91
2022/04/22 06:02:55;;;;;;;24.83;19.93;;;8.80;99.90;;;;;;4959774;28;20483;-90
2022/04/22 06:05:25;;;;;;;29.37;20.57;;;8.10;99.90;;;;;;4952096;28;20577;-92
2022/04/22 06:10:38;;;;;;;24.70;20.00;;;7.70;99.90;;;;;;4974884;28;20595;-90
2022/04/22 06:13:05;;;;;;;24.63;19.80;;;7.90;99.90;;;;;;4951020;28;20770;-89
2022/04/22 06:15:32;;;;;;;23.63;18.87;;;8.00;99.90;;;;;;4963595;28;20961;-90
2022/04/22 06:18:00;;;;;;;23.83;19.13;;;8.00;99.90;;;;;;4972719;28;20437;-90
2022/04/22 06:20:50;;;;;;;25.10;20.23;;;8.10;99.90;;;;;;4963808;28;20435;-90
2022/04/22 06:23:20;;;;;;;26.73;20.27;;;8.10;99.90;;;;;;4987525;28;20452;-89
2022/04/22 06:25:48;;;;;;;20.80;18.27;;;8.40;99.90;;;;;;4972002;28;20822;-90
2022/04/22 06:28:13;;;;;;;26.23;20.33;;;8.20;99.90;;;;;;4973392;28;20436;-90
2022/04/22 06:30:41;;;;;;;25.67;19.83;;;8.40;99.90;;;;;;4987899;28;20474;-88
2022/04/22 06:33:07;;;;;;;23.10;18.63;;;8.50;99.90;;;;;;4986568;28;20516;-88
2022/04/22 06:35:33;;;;;;;23.27;17.30;;;8.50;99.90;;;;;;4974839;28;20436;-90
2022/04/22 06:38:01;;;;;;;23.73;19.20;;;8.60;99.90;;;;;;4974759;28;20462;-88
2022/04/22 06:45:56;;;;;;;21.00;18.07;;;8.80;99.90;;;;;;4984188;28;20463;-89
2022/04/22 06:48:30;;;;;;;23.10;18.80;;;9.10;99.90;;;;;;4977186;28;20448;-88
2022/04/22 06:50:57;;;;;;;22.03;18.70;;;9.20;99.90;;;;;;4997083;28;20531;-88
2022/04/22 06:53:24;;;;;;;21.90;18.80;;;9.30;99.90;;;;;;4981072;28;20485;-89
2022/04/22 06:55:53;;;;;;;23.17;18.97;;;9.40;99.90;;;;;;4974897;28;20445;-89
2022/04/22 06:58:20;;;;;;;21.50;17.70;;;9.40;99.90;;;;;;4979235;28;21842;-89
2022/04/22 07:00:47;;;;;;;23.77;19.60;;;9.40;99.90;;;;;;4972015;28;20451;-90
2022/04/22 07:03:18;;;;;;;21.87;17.77;;;9.40;99.90;;;;;;4991146;28;20446;-89
2022/04/22 07:05:47;;;;;;;24.00;19.03;;;9.50;99.90;;;;;;5009452;28;20442;-90
2022/04/22 07:08:14;;;;;;;21.97;18.50;;;9.60;99.90;;;;;;4976016;28;21193;-90
2022/04/22 07:10:45;;;;;;;22.00;18.53;;;9.60;99.90;;;;;;4991760;28;20507;-90
2022/04/22 07:13:21;;;;;;;21.47;18.87;;;9.70;99.90;;;;;;4991096;28;20485;-89
2022/04/22 07:15:59;;;;;;;23.10;19.90;;;9.70;99.90;;;;;;4979584;28;20441;-89
2022/04/22 07:18:38;;;;;;;21.23;18.67;;;9.80;99.90;;;;;;4973315;28;20457;-89
2022/04/22 07:21:07;;;;;;;21.17;18.90;;;9.80;99.90;;;;;;4969548;28;21109;-88
2022/04/22 07:23:42;;;;;;;21.40;18.40;;;10.00;99.90;;;;;;4990038;28;20450;-89
2022/04/22 07:26:09;;;;;;;22.30;18.40;;;10.20;99.90;;;;;;4981080;28;21190;-89
2022/04/22 07:28:37;;;;;;;21.43;18.10;;;10.20;99.90;;;;;;4990899;28;20961;-88
2022/04/22 07:31:04;;;;;;;22.90;19.27;;;10.30;99.90;;;;;;4972959;28;21508;-89
2022/04/22 07:33:30;;;;;;;21.13;18.40;;;10.50;99.90;;;;;;4968409;28;20546;-88
2022/04/22 07:35:56;;;;;;;22.00;18.90;;;10.70;99.90;;;;;;4984726;28;20447;-89
2022/04/22 07:38:22;;;;;;;19.13;17.13;;;10.90;99.90;;;;;;4975123;28;20480;-88
2022/04/22 07:40:50;;;;;;;21.50;18.27;;;10.80;99.90;;;;;;4991858;28;20598;-88
2022/04/22 07:48:47;;;;;;;20.20;17.73;;;11.20;99.90;;;;;;4987098;28;20470;-88
2022/04/22 07:51:13;;;;;;;24.03;19.23;;;11.20;99.90;;;;;;4972830;28;20440;-88
2022/04/22 07:53:38;;;;;;;21.93;18.33;;;11.40;99.90;;;;;;4971397;28;20490;-88
2022/04/22 07:56:05;;;;;;;20.30;17.70;;;11.50;99.90;;;;;;4974791;28;20185;-87
2022/04/22 07:58:31;;;;;;;22.17;19.80;;;11.70;99.90;;;;;;4969363;28;20280;-89
2022/04/22 08:00:57;;;;;;;22.97;19.60;;;11.70;99.90;;;;;;4982856;28;20470;-88
2022/04/22 08:03:25;;;;;;;22.27;19.03;;;11.90;99.90;;;;;;4977571;28;20460;-88
2022/04/22 08:05:51;;;;;;;19.37;17.37;;;12.00;99.90;;;;;;4985911;28;21048;-88
2022/04/22 08:08:16;;;;;;;19.97;17.87;;;12.00;99.90;;;;;;4970148;28;20440;-89
2022/04/22 08:10:42;;;;;;;21.20;19.03;;;12.20;99.90;;;;;;4968419;28;20181;-88
2022/04/22 08:13:08;;;;;;;19.00;17.03;;;12.30;99.90;;;;;;4978057;28;20738;-88
2022/04/22 08:15:34;;;;;;;18.10;16.30;;;12.50;99.90;;;;;;4968337;28;20533;-88
2022/04/22 08:18:01;;;;;;;18.57;16.80;;;12.60;99.90;;;;;;4971951;28;20822;-87
2022/04/22 08:20:29;;;;;;;19.20;17.20;;;12.60;99.90;;;;;;4979570;28;20461;-90
2022/04/22 08:22:55;;;;;;;19.20;17.20;;;12.80;99.90;;;;;;4995056;28;20474;-89
2022/04/22 08:25:21;;;;;;;18.90;17.00;;;13.00;99.90;;;;;;4985625;28;20573;-89
2022/04/22 08:27:47;;;;;;;19.47;16.93;;;12.90;99.90;;;;;;4977233;28;20654;-89
2022/04/22 08:30:26;;;;;;;18.70;16.83;;;13.30;99.90;;;;;;4987146;28;20247;-89
2022/04/22 08:33:02;;;;;;;17.87;16.10;;;13.20;99.90;;;;;;4973533;28;20567;-90
2022/04/22 08:35:28;;;;;;;18.77;16.77;;;13.20;99.50;;;;;;4970484;28;20534;-90
2022/04/22 08:37:54;;;;;;;18.27;16.47;;;13.30;99.90;;;;;;4975741;28;20177;-89
2022/04/22 08:40:20;;;;;;;18.67;16.87;;;13.40;99.90;;;;;;4984349;28;20447;-90
2022/04/22 08:42:49;;;;;;;19.10;16.87;;;13.50;99.90;;;;;;4976133;28;20227;-90
2022/04/22 08:45:16;;;;;;;19.23;17.23;;;13.60;99.90;;;;;;4970889;28;20437;-89
2022/04/22 08:50:27;;;;;;;17.60;16.00;;;14.40;99.20;;;;;;4988138;28;20752;-90
2022/04/22 08:53:03;;;;;;;17.40;15.70;;;14.20;99.90;;;;;;4974348;28;20486;-89
2022/04/22 08:55:30;;;;;;;18.03;16.30;;;14.30;97.20;;;;;;4973055;28;20448;-90
2022/04/22 08:57:56;;;;;;;16.53;14.93;;;14.40;96.30;;;;;;4991987;28;20677;-90
2022/04/22 09:00:22;;;;;;;15.90;14.40;;;14.40;96.40;;;;;;4990701;28;20449;-90
2022/04/22 09:02:49;;;;;;;18.70;15.73;;;14.20;96.20;;;;;;4972133;28;20208;-89
2022/04/22 09:05:18;;;;;;;16.13;14.57;;;14.40;97.70;;;;;;4970211;28;20535;-90
2022/04/22 09:07:47;;;;;;;17.07;15.37;;;14.40;96.90;;;;;;4970062;28;20447;-90
2022/04/22 09:10:13;;;;;;;16.57;14.93;;;14.40;96.60;;;;;;4971921;28;20514;-89
2022/04/22 09:12:52;;;;;;;16.07;14.57;;;14.80;96.30;;;;;;4967790;28;20990;-90
2022/04/22 09:15:21;;;;;;;16.93;15.23;;;14.90;96.10;;;;;;4975309;28;20478;-90
2022/04/22 09:17:47;;;;;;;17.40;15.80;;;15.10;95.70;;;;;;4985888;28;20439;-90
2022/04/22 09:20:15;;;;;;;17.10;15.40;;;15.70;96.80;;;;;;4968802;28;20803;-90
2022/04/22 09:22:41;;;;;;;16.10;14.60;;;15.10;95.50;;;;;;4973925;28;20189;-91
2022/04/22 09:25:06;;;;;;;17.13;15.43;;;15.40;96.20;;;;;;4971290;28;20450;-90
2022/04/22 09:27:44;;;;;;;16.33;14.73;;;15.70;94.50;;;;;;4970490;28;20447;-90
2022/04/22 09:30:12;;;;;;;16.10;14.40;;;16.00;94.80;;;;;;4977476;28;20258;-91
2022/04/22 09:32:40;;;;;;;16.90;15.10;;;16.10;94.20;;;;;;4973956;28;20467;-91
2022/04/22 09:35:19;;;;;;;17.73;16.13;;;16.20;92.90;;;;;;4973538;28;20757;-91
2022/04/22 09:43:45;;;;;;;17.40;15.73;;;16.20;92.90;;;;;;4990742;28;20502;-91
2022/04/22 09:46:24;;;;;;;16.83;15.33;;;16.20;95.10;;;;;;4991043;28;20478;-90
2022/04/22 09:48:52;;;;;;;16.77;14.97;;;16.30;94.30;;;;;;4989170;28;20436;-90
2022/04/22 09:51:23;;;;;;;16.60;15.00;;;16.30;95.30;;;;;;4988643;28;20439;-90
2022/04/22 09:54:14;;;;;;;17.47;15.87;;;16.40;95.60;;;;;;4988355;28;20914;-91
2022/04/22 09:56:55;;;;;;;16.90;15.20;;;16.60;93.90;;;;;;4994886;28;20496;-90
2022/04/22 09:59:23;;;;;;;15.87;14.40;;;16.60;95.10;;;;;;4971839;28;20505;-91
2022/04/22 10:01:49;;;;;;;15.90;14.40;;;16.60;94.40;;;;;;4975479;28;20562;-90
2022/04/22 10:04:17;;;;;;;16.23;14.63;;;17.00;93.00;;;;;;4970882;28;20809;-91
2022/04/22 10:06:44;;;;;;;15.37;13.97;;;17.80;93.60;;;;;;4975516;28;20767;-90
2022/04/22 10:09:11;;;;;;;15.77;14.27;;;17.30;93.40;;;;;;4992995;28;20440;-90
2022/04/22 10:11:39;;;;;;;17.00;14.17;;;17.80;93.00;;;;;;4967415;28;21139;-90
2022/04/22 10:14:10;;;;;;;14.63;13.33;;;17.70;91.30;;;;;;4975327;28;20602;-90
2022/04/22 10:16:39;;;;;;;15.70;14.30;;;17.70;91.10;;;;;;4968142;28;20462;-86
2022/04/22 10:19:05;;;;;;;15.20;13.80;;;17.80;90.10;;;;;;4981211;28;20455;-91
2022/04/22 10:21:32;;;;;;;15.70;14.30;;;17.50;89.50;;;;;;4961727;28;20436;-90
2022/04/22 10:23:58;;;;;;;15.17;13.77;;;17.50;91.40;;;;;;4976058;28;20263;-91
2022/04/22 10:26:26;;;;;;;15.03;13.63;;;17.60;92.60;;;;;;4958511;28;20435;-91
2022/04/22 10:28:53;;;;;;;15.80;14.33;;;17.60;91.60;;;;;;4966412;28;20450;-90
2022/04/22 10:31:22;;;;;;;15.93;14.37;;;17.50;91.90;;;;;;4968741;28;20447;-92
2022/04/22 10:33:48;;;;;;;15.27;13.87;;;18.20;91.90;;;;;;4969632;28;20539;-91
2022/04/22 10:36:18;;;;;;;14.90;13.60;;;17.40;91.70;;;;;;4969671;28;20448;-90
2022/04/22 10:38:48;;;;;;;14.90;13.50;;;17.50;93.30;;;;;;4971868;28;20480;-89
2022/04/22 10:41:18;;;;;;;14.13;12.83;;;17.50;91.00;;;;;;4969480;28;20447;-89
2022/04/22 10:49:44;;;;;;;12.63;11.53;;;18.00;89.80;;;;;;4987848;28;20463;-92
2022/04/22 10:52:17;;;;;;;14.57;13.27;;;18.40;88.90;;;;;;4976942;28;20444;-89
2022/04/22 10:54:52;;;;;;;13.23;12.13;;;18.50;83.70;;;;;;4985777;28;20865;-89
2022/04/22 10:57:19;;;;;;;12.47;11.47;;;18.20;83.80;;;;;;4987086;28;20451;-92
2022/04/22 10:59:46;;;;;;;14.00;12.80;;;17.90;84.80;;;;;;4998549;28;20878;-88
2022/04/22 11:02:31;;;;;;;14.83;13.53;;;18.40;90.80;;;;;;4999505;28;20451;-92
2022/04/22 11:05:19;;;;;;;12.97;11.87;;;18.80;90.50;;;;;;4957505;28;21094;-89
2022/04/22 11:08:25;;;;;;;12.70;11.60;;;19.00;91.30;;;;;;4972732;28;20455;-89
2022/04/22 11:11:06;;;;;;;12.93;11.93;;;19.60;85.40;;;;;;4989773;28;20486;-90
2022/04/22 11:13:40;;;;;;;12.67;11.37;;;19.80;84.00;;;;;;4972213;28;20486;-91
2022/04/22 11:16:14;;;;;;;12.50;11.30;;;19.80;85.30;;;;;;4973501;28;20452;-91
2022/04/22 11:19:06;;;;;;;11.80;10.77;;;20.10;78.40;;;;;;4990399;28;22237;-89
2022/04/22 11:21:37;;;;;;;11.90;10.90;;;19.90;78.70;;;;;;4980077;28;20444;-91
2022/04/22 11:24:36;;;;;;;11.60;10.70;;;20.10;82.50;;;;;;4988964;28;21498;-90
2022/04/22 11:27:11;;;;;;;12.37;11.37;;;20.30;80.00;;;;;;4917720;28;20452;-92
2022/04/22 11:29:39;;;;;;;13.53;12.50;;;19.70;82.90;;;;;;4975344;28;20519;-90
2022/04/22 11:32:53;;;;;;;11.50;10.50;;;19.70;76.60;;;;;;4979159;28;20440;-92
2022/04/22 11:35:28;;;;;;;12.00;11.00;;;20.00;82.90;;;;;;4985068;28;20451;-92
2022/04/22 11:38:04;;;;;;;10.43;9.60;;;19.90;85.40;;;;;;4971880;28;20473;-91
2022/04/22 11:40:40;;;;;;;10.90;9.80;;;20.50;78.60;;;;;;4972812;28;20873;-92
2022/04/22 11:43:22;;;;;;;11.87;10.77;;;20.80;79.30;;;;;;4988007;28;20449;-91
2022/04/22 11:45:51;;;;;;;10.00;9.30;;;21.10;74.60;;;;;;4977099;28;20451;-91
2022/04/22 11:48:24;;;;;;;11.37;10.37;;;20.60;71.30;;;;;;4974619;28;20193;-91
2022/04/22 11:50:50;;;;;;;11.90;10.80;;;20.60;78.30;;;;;;4999031;28;20454;-91
2022/04/22 11:53:26;;;;;;;11.00;10.00;;;20.20;78.80;;;;;;4975146;28;20513;-93
2022/04/22 11:56:03;;;;;;;11.40;10.30;;;20.20;78.10;;;;;;4998208;28;20453;-91
2022/04/22 11:58:30;;;;;;;11.17;10.37;;;20.50;77.50;;;;;;4993787;28;20446;-90
2022/04/22 12:06:28;;;;;;;10.73;9.83;;;20.90;76.30;;;;;;4972560;28;20459;-91
2022/04/22 12:09:00;;;;;;;10.03;9.20;;;20.50;75.00;;;;;;4965983;28;20965;-91
2022/04/22 12:11:26;;;;;;;9.90;9.07;;;21.20;71.80;;;;;;4966848;28;20238;-90
2022/04/22 12:13:53;;;;;;;10.17;9.37;;;21.80;77.30;;;;;;4965695;28;21255;-91
2022/04/22 12:16:27;;;;;;;10.50;9.67;;;21.80;70.50;;;;;;4969562;28;20438;-91
2022/04/22 12:18:56;;;;;;;11.13;10.23;;;21.60;74.20;;;;;;4966364;28;20500;-85
2022/04/22 12:21:24;;;;;;;11.27;10.37;;;21.10;76.80;;;;;;4984799;28;20440;-89
2022/04/22 12:24:02;;;;;;;10.60;9.70;;;20.90;75.70;;;;;;4963838;28;20452;-89
2022/04/22 12:26:32;;;;;;;11.23;10.23;;;21.20;75.50;;;;;;4966709;28;20454;-89
2022/04/22 12:29:20;;;;;;;12.20;11.20;;;21.50;74.70;;;;;;4969474;28;20440;-90
2022/04/22 12:31:51;;;;;;;11.13;10.20;;;21.70;69.20;;;;;;4967951;28;20494;-90
2022/04/22 12:34:38;;;;;;;11.30;10.33;;;21.60;69.10;;;;;;4985949;28;20487;-91
2022/04/22 12:37:07;;;;;;;12.30;11.30;;;21.30;68.40;;;;;;4972829;28;20547;-90
2022/04/22 12:39:35;;;;;;;10.30;9.50;;;21.60;73.70;;;;;;4968086;28;20444;-90
2022/04/22 12:42:02;;;;;;;12.43;11.37;;;22.30;71.40;;;;;;4965887;28;20491;-90
2022/04/22 12:44:28;;;;;;;10.90;9.93;;;22.00;71.40;;;;;;4982827;28;20597;-89
2022/04/22 12:52:47;;;;;;;10.20;9.30;;;21.90;69.40;;;;;;4981819;28;20447;-90
2022/04/22 12:55:19;;;;;;;10.13;9.23;;;21.00;70.10;;;;;;4970476;28;20857;-90
2022/04/22 12:57:58;;;;;;;10.80;9.93;;;21.00;71.10;;;;;;4965304;28;20471;-90
2022/04/22 13:00:24;;;;;;;10.73;9.73;;;21.60;71.50;;;;;;4970151;28;20443;-90
2022/04/22 13:03:01;;;;;;;10.60;9.47;;;21.60;71.10;;;;;;4964939;28;20455;-91
2022/04/22 13:05:31;;;;;;;11.40;10.53;;;22.10;68.60;;;;;;4971549;28;20463;-90
2022/04/22 13:07:56;;;;;;;10.57;9.70;;;20.80;69.10;;;;;;4967987;28;20466;-90
2022/04/22 13:10:23;;;;;;;10.60;9.70;;;20.50;70.10;;;;;;4984828;28;20452;-90
2022/04/22 13:12:49;;;;;;;10.90;9.97;;;20.70;71.60;;;;;;4967034;28;20182;-90
2022/04/22 13:15:18;;;;;;;12.50;11.30;;;21.40;65.00;;;;;;4967789;28;21051;-90
2022/04/22 13:17:45;;;;;;;12.00;9.50;;;22.20;66.10;;;;;;4968401;28;20542;-91
2022/04/22 13:20:13;;;;;;;11.10;10.00;;;22.00;65.00;;;;;;4967876;28;21149;-91
2022/04/22 13:22:40;;;;;;;10.50;9.60;;;22.20;64.10;;;;;;4966982;28;20638;-90
2022/04/22 13:25:06;;;;;;;9.80;8.90;;;22.10;67.30;;;;;;4963249;28;20553;-90
2022/04/22 13:27:32;;;;;;;8.57;7.67;;;22.30;67.30;;;;;;4977146;28;20454;-89
2022/04/22 13:29:58;;;;;;;9.87;8.50;;;22.80;66.70;;;;;;4963647;28;20693;-90
2022/04/22 13:32:23;;;;;;;10.10;9.40;;;22.60;62.20;;;;;;4963369;28;20687;-91
2022/04/22 13:34:49;;;;;;;11.63;8.90;;;22.30;62.20;;;;;;4984001;28;20216;-91
2022/04/22 13:37:17;;;;;;;9.00;8.20;;;21.70;64.30;;;;;;4971585;28;20192;-91
2022/04/22 13:39:55;;;;;;;8.80;8.13;;;22.30;65.60;;;;;;4962570;28;20877;-90
2022/04/22 13:42:24;;;;;;;9.70;8.90;;;22.80;65.10;;;;;;4966974;28;20485;-89
2022/04/22 13:53:05;;;;;;;8.70;7.90;;;23.30;61.70;;;;;;4991776;28;20526;-89
2022/04/22 13:55:39;;;;;;;8.37;7.50;;;24.00;61.50;;;;;;4968138;28;20885;-89
2022/04/22 13:58:06;;;;;;;9.93;8.73;;;24.80;58.30;;;;;;4961448;28;20213;-89